Time;durP1;ratioP1;P1;durP2;ratioP2;P2;SDS_P1;SDS_P2;PMS_P1;PMS_P2;Temp;Humidity;BMP_temperature;BMP_pressure;BME280_temperature;BME280_humidity;BME280_pressure;Samples;Min_cycle;Max_cycle;Signal;HPM_P1;HPM_P2
2021/11/20 00:00:12;;;;;;;2.15;1.95;;;;;;;8.88;82.56;98308.89;1698282;84;21620;-39
2021/11/20 00:02:39;;;;;;;2.85;2.40;;;;;;;8.90;82.58;98295.23;1694048;84;21505;-38
2021/11/20 00:05:08;;;;;;;2.20;2.00;;;;;;;8.89;82.62;98291.53;1687293;84;21532;-39
2021/11/20 00:07:35;;;;;;;2.42;2.20;;;;;;;8.91;82.68;98290.57;1695114;84;21118;-39
2021/11/20 00:10:04;;;;;;;3.85;2.33;;;;;;;8.93;82.66;98288.28;1685286;84;21133;-39
2021/11/20 00:12:32;;;;;;;4.10;2.70;;;;;;;8.95;82.68;98284.07;1696577;84;21532;-39
2021/11/20 00:14:59;;;;;;;3.30;2.52;;;;;;;8.94;82.72;98279.81;1674419;84;21089;-39
2021/11/20 00:17:27;;;;;;;2.83;2.58;;;;;;;8.94;82.86;98279.03;1688023;84;21545;-38
2021/11/20 00:19:54;;;;;;;2.90;2.60;;;;;;;8.98;82.83;98284.66;1673693;84;21062;-39
2021/11/20 00:22:31;;;;;;;5.40;2.80;;;;;;;9.01;82.78;98273.66;1739647;81;21147;-39
2021/11/20 00:25:03;;;;;;;3.10;2.80;;;;;;;9.04;82.74;98278.34;1734316;82;21567;-39
2021/11/20 00:27:37;;;;;;;3.92;2.58;;;;;;;9.02;82.87;98274.65;1743211;82;21081;-39
2021/11/20 00:30:16;;;;;;;2.98;2.67;;;;;;;9.04;82.87;98266.95;1725234;82;21016;-39
2021/11/20 00:32:53;;;;;;;3.62;3.00;;;;;;;9.09;82.87;98263.12;1743597;82;21006;-39
2021/11/20 00:35:24;;;;;;;4.75;3.62;;;;;;;9.12;82.88;98269.12;1729622;82;21139;-38
2021/11/20 00:37:51;;;;;;;4.75;3.00;;;;;;;9.14;82.88;98260.84;1735699;82;21585;-39
2021/11/20 00:40:30;;;;;;;5.40;3.45;;;;;;;9.21;82.86;98258.74;1739878;82;21059;-39
2021/11/20 00:42:58;;;;;;;5.37;3.60;;;;;;;9.26;82.74;98250.28;1734133;82;20930;-39
2021/11/20 00:45:26;;;;;;;5.67;3.40;;;;;;;9.26;82.91;98241.39;1744929;82;21048;-39
2021/11/20 00:47:53;;;;;;;4.78;3.30;;;;;;;9.27;83.02;98238.89;1724373;82;21138;-39
2021/11/20 00:50:20;;;;;;;4.75;4.33;;;;;;;9.34;82.93;98242.42;1751115;82;20981;-39
2021/11/20 00:52:47;;;;;;;5.78;4.03;;;;;;;9.43;82.82;98232.61;1735950;82;21519;-39
2021/11/20 00:55:19;;;;;;;7.62;3.90;;;;;;;9.45;82.84;98228.94;1723455;82;21065;-39
2021/11/20 00:57:48;;;;;;;4.47;3.72;;;;;;;9.49;82.88;98227.02;1745498;82;21041;-39
2021/11/20 01:00:17;;;;;;;5.10;4.47;;;;;;;9.56;82.83;98231.91;1731926;82;21146;-39
2021/11/20 01:02:44;;;;;;;5.05;4.40;;;;;;;9.61;82.78;98218.59;1743368;82;21024;-39
2021/11/20 01:05:11;;;;;;;5.15;4.42;;;;;;;9.64;82.91;98210.27;1721862;82;20997;-39
2021/11/20 01:07:39;;;;;;;6.12;4.40;;;;;;;9.66;82.96;98206.05;1737529;82;21531;-39
2021/11/20 01:10:10;;;;;;;5.25;4.75;;;;;;;9.75;82.89;98197.56;1750014;82;21583;-39
2021/11/20 01:12:37;;;;;;;5.87;4.97;;;;;;;9.82;82.89;98199.73;1749418;82;21080;-39
2021/11/20 01:15:08;;;;;;;5.50;4.67;;;;;;;9.85;82.94;98195.47;1744585;81;21064;-39
2021/11/20 01:17:37;;;;;;;5.33;4.62;;;;;;;9.86;83.05;98185.63;1723890;82;20934;-39
2021/11/20 01:20:07;;;;;;;8.08;5.00;;;;;;;9.95;82.97;98183.89;1721634;83;20981;-39
2021/11/20 01:22:52;;;;;;;4.92;4.42;;;;;;;10.04;82.74;98167.48;1738469;81;21021;-39
2021/11/20 01:25:25;;;;;;;5.15;4.65;;;;;;;10.04;82.76;98165.34;1754962;81;21091;-39
2021/11/20 01:28:04;;;;;;;4.78;4.03;;;;;;;10.07;82.94;98165.92;1732365;81;21060;-39
2021/11/20 01:30:51;;;;;;;4.95;4.45;;;;;;;10.16;82.82;98154.77;1756617;81;20985;-39
2021/11/20 01:33:21;;;;;;;4.10;3.60;;;;;;;10.16;82.82;98145.28;1755088;81;21666;-39
2021/11/20 01:35:49;;;;;;;5.75;3.80;;;;;;;10.19;82.82;98145.86;1751025;81;21005;-39
2021/11/20 01:38:18;;;;;;;4.62;3.60;;;;;;;10.25;82.72;98137.55;1753334;81;21852;-39
2021/11/20 01:40:46;;;;;;;4.65;4.03;;;;;;;10.29;82.56;98130.20;1756245;81;21021;-39
2021/11/20 01:43:15;;;;;;;3.57;3.23;;;;;;;10.28;82.65;98129.99;1697808;82;21210;-39
2021/11/20 01:45:59;;;;;;;4.12;3.20;;;;;;;10.26;82.69;98124.20;1719334;83;21048;-39
2021/11/20 01:48:43;;;;;;;3.92;3.58;;;;;;;10.35;82.50;98120.53;1707582;83;21043;-39
2021/11/20 01:51:24;;;;;;;3.98;3.58;;;;;;;10.37;82.28;98113.55;1696293;83;21852;-39
2021/11/20 01:54:18;;;;;;;4.67;3.37;;;;;;;10.34;82.31;98111.63;1714972;83;21555;-39
2021/11/20 01:57:12;;;;;;;4.70;3.40;;;;;;;10.38;82.35;98107.55;1694306;83;21064;-39
2021/11/20 02:00:12;;;;;;;4.58;2.92;;;;;;;10.39;82.49;98092.84;1709809;83;21044;-39
2021/11/20 02:03:04;;;;;;;3.10;2.80;;;;;;;10.38;82.63;98088.59;1703417;83;21064;-39
2021/11/20 02:06:03;;;;;;;3.12;2.80;;;;;;;10.39;82.65;98094.20;1700465;83;21106;-39
2021/11/20 02:08:50;;;;;;;3.10;2.80;;;;;;;10.37;82.61;98095.16;1687739;83;21044;-39
2021/11/20 02:11:22;;;;;;;3.45;2.58;;;;;;;10.41;82.45;98085.09;1672616;83;21068;-39
2021/11/20 02:13:50;;;;;;;3.33;2.85;;;;;;;10.43;82.28;98088.20;1697350;84;21022;-39
2021/11/20 02:16:23;;;;;;;4.53;3.00;;;;;;;10.48;82.10;98094.58;1686130;84;20985;-39
2021/11/20 02:18:55;;;;;;;3.50;2.60;;;;;;;10.49;81.94;98092.64;1700455;84;21196;-39
2021/11/20 02:21:55;;;;;;;4.08;2.52;;;;;;;10.53;81.68;98096.89;1692766;84;21555;-39
2021/11/20 02:24:22;;;;;;;2.72;2.12;;;;;;;10.57;81.44;98091.46;1697118;84;21101;-39
2021/11/20 02:26:53;;;;;;;2.83;2.50;;;;;;;10.59;81.40;98089.15;1629431;84;21038;-39
2021/11/20 02:29:20;;;;;;;2.75;2.37;;;;;;;10.59;81.22;98080.44;1675760;84;21116;-39
2021/11/20 02:32:02;;;;;;;2.98;2.50;;;;;;;10.67;81.07;98086.61;1703478;83;21179;-39
2021/11/20 02:34:51;;;;;;;3.98;2.22;;;;;;;10.69;80.91;98073.45;1711462;83;21542;-39
2021/11/20 02:37:18;;;;;;;2.63;2.10;;;;;;;10.66;81.00;98083.70;1710807;83;21017;-39
2021/11/20 02:39:46;;;;;;;4.17;2.22;;;;;;;10.68;80.98;98078.67;1713841;83;20937;-39
2021/11/20 02:42:17;;;;;;;2.80;2.30;;;;;;;10.72;80.86;98072.08;1718789;83;21001;-39
2021/11/20 02:44:46;;;;;;;3.72;2.40;;;;;;;10.73;80.69;98070.92;1701137;83;21956;-39
2021/11/20 02:47:25;;;;;;;3.20;2.00;;;;;;;10.72;80.55;98064.52;1697489;83;21540;-39
2021/11/20 02:49:52;;;;;;;2.72;2.50;;;;;;;10.76;80.41;98063.34;1695280;83;21043;-39
2021/11/20 02:52:20;;;;;;;3.55;2.83;;;;;;;10.81;80.18;98078.44;1695681;83;21590;-39
2021/11/20 02:54:48;;;;;;;2.65;2.20;;;;;;;10.77;80.40;98060.84;1707380;83;21608;-39
2021/11/20 02:57:21;;;;;;;3.98;2.40;;;;;;;10.76;80.65;98067.41;1712544;83;21270;-39
2021/11/20 02:59:48;;;;;;;2.85;2.30;;;;;;;10.77;80.53;98064.91;1691899;83;21004;-39
2021/11/20 03:02:17;;;;;;;2.45;2.17;;;;;;;10.78;80.43;98057.55;1698379;84;21024;-39
2021/11/20 03:04:44;;;;;;;2.42;2.22;;;;;;;10.76;80.40;98058.50;1679257;83;21091;-39
2021/11/20 03:07:11;;;;;;;2.72;2.20;;;;;;;10.78;80.25;98059.67;1714249;83;20996;-39
2021/11/20 03:09:39;;;;;;;2.87;2.45;;;;;;;10.82;80.02;98061.79;1716417;83;21402;-39
2021/11/20 03:12:10;;;;;;;2.27;1.92;;;;;;;10.80;79.99;98070.88;1718002;83;21470;-39
2021/11/20 03:14:37;;;;;;;;;;;;;;;10.80;79.97;98064.69;1721041;83;21088;-39
2021/11/20 03:17:07;;;;;;;2.27;1.92;;;;;;;10.84;79.73;98074.35;1718654;83;20202;-39
2021/11/20 03:19:39;;;;;;;3.92;2.00;;;;;;;10.76;79.81;98059.86;1718526;83;21115;-39
2021/11/20 03:22:11;;;;;;;2.83;1.80;;;;;;;10.76;79.48;98060.64;1694164;83;21196;-39
2021/11/20 03:24:39;;;;;;;2.58;1.87;;;;;;;10.82;79.37;98076.70;1707466;84;20980;-39
2021/11/20 03:27:06;;;;;;;4.83;2.08;;;;;;;10.87;78.74;98064.09;1703905;83;21060;-39
2021/11/20 03:29:34;;;;;;;3.37;1.82;;;;;;;10.87;78.54;98060.61;1692771;83;21039;-39
2021/11/20 03:32:03;;;;;;;2.00;1.60;;;;;;;10.86;78.45;98057.13;1698762;84;21057;-38
2021/11/20 03:34:32;;;;;;;2.35;1.92;;;;;;;10.92;78.12;98072.99;1679711;84;21094;-39
2021/11/20 03:37:00;;;;;;;4.20;1.95;;;;;;;10.94;77.67;98063.89;1697691;84;20978;-39
2021/11/20 03:39:29;;;;;;;3.20;2.02;;;;;;;10.93;77.56;98066.41;1704570;84;21060;-39
2021/11/20 03:41:56;;;;;;;4.67;2.00;;;;;;;10.97;77.39;98068.52;1702351;84;21138;-39
2021/11/20 03:44:23;;;;;;;3.98;2.20;;;;;;;11.02;77.17;98059.98;1692207;84;21061;-39
2021/11/20 03:46:51;;;;;;;3.90;1.87;;;;;;;10.99;77.04;98062.13;1701392;83;21107;-39
2021/11/20 03:49:19;;;;;;;4.37;2.20;;;;;;;11.02;76.80;98074.31;1678781;85;20918;-39
2021/11/20 03:51:47;;;;;;;3.77;2.05;;;;;;;11.04;76.57;98057.63;1697251;84;21029;-39
2021/11/20 03:54:14;;;;;;;4.67;2.30;;;;;;;11.05;76.29;98061.89;1705083;83;21896;-39
2021/11/20 03:56:42;;;;;;;2.50;2.08;;;;;;;11.03;76.16;98060.95;1703707;83;21106;-39
2021/11/20 03:59:10;;;;;;;5.05;2.12;;;;;;;11.02;76.27;98064.05;1739366;82;21149;-39
2021/11/20 04:01:37;;;;;;;3.35;2.35;;;;;;;11.06;75.98;98066.16;1731971;82;20970;-39
2021/11/20 04:04:04;;;;;;;5.87;2.00;;;;;;;11.06;75.83;98064.22;1725180;82;21002;-39
2021/11/20 04:06:32;;;;;;;5.03;2.08;;;;;;;11.03;75.64;98068.31;1713460;82;21488;-39
2021/11/20 04:09:01;;;;;;;4.67;1.97;;;;;;;11.02;75.48;98060.75;1743581;81;21072;-39
2021/11/20 04:11:32;;;;;;;5.40;2.37;;;;;;;11.05;75.12;98076.81;1738863;81;21125;-39
2021/11/20 04:13:59;;;;;;;2.80;2.27;;;;;;;11.04;75.14;98067.90;1743480;81;21025;-39
2021/11/20 04:16:27;;;;;;;4.33;2.00;;;;;;;11.01;74.74;98073.34;1740460;82;21029;-39
2021/11/20 04:18:55;;;;;;;4.35;2.08;;;;;;;11.04;74.59;98063.05;1741047;81;20973;-39
2021/11/20 04:21:23;;;;;;;5.58;2.17;;;;;;;11.10;74.17;98065.55;1739626;81;21088;-39
2021/11/20 04:23:53;;;;;;;4.60;1.98;;;;;;;11.09;74.08;98081.05;1743981;81;21181;-39
2021/11/20 04:26:23;;;;;;;4.53;1.95;;;;;;;11.10;74.21;98081.83;1732474;81;21531;-39
2021/11/20 04:28:50;;;;;;;2.83;2.20;;;;;;;11.13;74.27;98091.33;1696927;83;21034;-39
2021/11/20 04:31:19;;;;;;;3.05;2.00;;;;;;;11.19;74.12;98097.09;1680458;84;21008;-39
2021/11/20 04:33:49;;;;;;;3.55;2.00;;;;;;;11.16;73.98;98082.97;1658458;85;21643;-39
2021/11/20 04:36:16;;;;;;;5.35;2.20;;;;;;;11.15;74.03;98090.91;1707541;83;21791;-39
2021/11/20 04:38:45;;;;;;;3.33;2.15;;;;;;;11.12;74.12;98087.64;1688528;83;21005;-40
2021/11/20 04:41:13;;;;;;;5.03;2.10;;;;;;;11.14;73.92;98092.08;1712281;83;21041;-39
2021/11/20 04:43:43;;;;;;;8.15;2.40;;;;;;;11.14;73.92;98089.36;1701730;83;21589;-39
2021/11/20 04:46:12;;;;;;;3.80;1.90;;;;;;;11.12;74.06;98097.14;1699967;83;21052;-39
2021/11/20 04:48:39;;;;;;;2.72;1.80;;;;;;;11.15;73.89;98098.47;1685159;84;21150;-39
2021/11/20 04:51:07;;;;;;;5.03;2.05;;;;;;;11.17;73.51;98096.73;1687689;84;21046;-39
2021/11/20 04:53:37;;;;;;;5.80;2.72;;;;;;;11.15;73.50;98096.34;1685628;84;21089;-39
2021/11/20 04:56:07;;;;;;;6.35;2.42;;;;;;;11.10;73.30;98090.74;1698680;84;21042;-39
2021/11/20 04:58:35;;;;;;;4.87;2.02;;;;;;;11.13;73.25;98095.98;1702459;84;25208;-39
2021/11/20 05:01:02;;;;;;;4.15;2.08;;;;;;;11.15;72.97;98106.61;1681120;84;21123;-39
2021/11/20 05:03:31;;;;;;;3.72;2.45;;;;;;;11.14;72.88;98101.57;1692335;84;21531;-39
2021/11/20 05:06:00;;;;;;;5.70;2.55;;;;;;;11.11;72.86;98095.59;1693439;84;21046;-39
2021/11/20 05:08:28;;;;;;;5.08;2.00;;;;;;;11.13;72.65;98101.41;1700016;84;21726;-39
2021/11/20 05:10:57;;;;;;;6.95;2.20;;;;;;;11.14;72.40;98112.42;1700468;84;21049;-39
2021/11/20 05:13:29;;;;;;;5.28;2.37;;;;;;;11.15;72.37;98122.11;1690847;84;21037;-39
2021/11/20 05:15:57;;;;;;;5.75;1.98;;;;;;;11.12;72.30;98103.92;1685298;84;21588;-39
2021/11/20 05:18:25;;;;;;;4.33;2.20;;;;;;;11.12;72.24;98102.56;1686447;84;21022;-39
2021/11/20 05:21:01;;;;;;;5.67;2.62;;;;;;;11.16;72.07;98116.88;1702400;84;21081;-39
2021/11/20 05:23:32;;;;;;;4.15;2.45;;;;;;;11.15;71.97;98124.82;1698716;84;21018;-39
2021/11/20 05:25:59;;;;;;;2.53;1.90;;;;;;;11.12;71.98;98133.75;1673100;84;21158;-39
2021/11/20 05:28:27;;;;;;;5.35;2.35;;;;;;;11.10;71.85;98136.08;1707380;83;21089;-39
2021/11/20 05:30:55;;;;;;;4.00;2.00;;;;;;;11.13;71.70;98127.17;1704672;84;21041;-39
2021/11/20 05:33:38;;;;;;;4.47;2.12;;;;;;;11.16;71.56;98133.16;1694951;84;21004;-39
2021/11/20 05:36:08;;;;;;;4.37;1.98;;;;;;;11.13;71.56;98141.51;1711587;83;21023;-39
2021/11/20 05:38:35;;;;;;;5.37;2.08;;;;;;;11.10;71.59;98132.78;1705922;84;21138;-39
2021/11/20 05:41:02;;;;;;;7.00;2.77;;;;;;;11.09;71.71;98146.73;1703457;83;21017;-39
2021/11/20 05:43:31;;;;;;;7.45;2.37;;;;;;;11.11;71.42;98154.68;1700163;82;21457;-39
2021/11/20 05:46:05;;;;;;;4.62;2.17;;;;;;;11.12;71.32;98160.88;1673102;85;21097;-40
2021/11/20 05:48:33;;;;;;;4.30;1.98;;;;;;;11.09;71.25;98168.42;1696299;84;21102;-40
2021/11/20 05:51:00;;;;;;;5.00;2.00;;;;;;;11.10;71.27;98168.05;1692501;83;21118;-41
2021/11/20 05:53:29;;;;;;;4.58;2.15;;;;;;;11.13;70.89;98164.56;1698235;82;21032;-40
2021/11/20 05:55:57;;;;;;;8.50;2.65;;;;;;;11.14;70.94;98166.67;1709265;83;21024;-40
2021/11/20 05:58:26;;;;;;;14.45;2.60;;;;;;;11.14;71.04;98165.31;1697908;82;21113;-40
2021/11/20 06:00:57;;;;;;;6.37;2.10;;;;;;;11.11;71.05;98170.95;1690673;83;21034;-40
2021/11/20 06:03:24;;;;;;;3.50;2.02;;;;;;;11.09;71.23;98167.84;1681149;84;21149;-40
2021/11/20 06:05:56;;;;;;;8.03;1.95;;;;;;;11.13;71.13;98176.00;1661502;82;21495;-40
2021/11/20 06:08:24;;;;;;;;;;;;;;;11.13;70.78;98176.00;1700415;82;20978;-40
2021/11/20 06:10:56;;;;;;;4.75;2.25;;;;;;;11.11;70.89;98173.66;1679272;85;20489;-40
2021/11/20 06:13:25;;;;;;;5.53;2.30;;;;;;;11.01;70.95;98176.39;1684461;84;21527;-39
2021/11/20 06:15:56;;;;;;;5.42;2.20;;;;;;;11.06;70.88;98171.93;1682129;84;21153;-39
2021/11/20 06:18:24;;;;;;;4.45;2.72;;;;;;;11.10;70.90;98182.19;1681431;84;21496;-39
2021/11/20 06:20:51;;;;;;;6.35;2.35;;;;;;;11.09;70.83;98171.91;1680577;84;21017;-39
2021/11/20 06:23:19;;;;;;;3.77;2.12;;;;;;;11.09;70.79;98169.78;1705334;84;21566;-39
2021/11/20 06:25:46;;;;;;;5.47;2.27;;;;;;;11.08;70.69;98170.39;1700566;84;21064;-39
2021/11/20 06:28:14;;;;;;;4.55;2.20;;;;;;;11.13;70.28;98170.57;1695212;84;21831;-39
2021/11/20 06:30:41;;;;;;;5.65;2.20;;;;;;;11.11;69.91;98175.02;1694572;83;21109;-39
2021/11/20 06:33:08;;;;;;;6.50;2.58;;;;;;;11.08;69.83;98186.66;1715075;83;21588;-39
2021/11/20 06:35:40;;;;;;;8.03;2.95;;;;;;;11.06;69.77;98181.42;1695651;84;21587;-39
2021/11/20 06:38:11;;;;;;;6.72;2.20;;;;;;;11.05;69.62;98176.58;1686680;84;21037;-40
2021/11/20 06:40:42;;;;;;;4.97;2.10;;;;;;;11.10;69.56;98174.05;1704944;83;21782;-39
2021/11/20 06:43:11;;;;;;;8.13;2.37;;;;;;;11.07;69.28;98168.06;1678834;84;21485;-39
2021/11/20 06:45:44;;;;;;;6.47;2.62;;;;;;;11.05;68.96;98173.09;1704553;84;21053;-39
2021/11/20 06:48:12;;;;;;;6.15;2.10;;;;;;;11.02;68.80;98176.59;1686573;83;21105;-39
2021/11/20 06:50:41;;;;;;;7.05;2.58;;;;;;;11.02;68.79;98172.52;1697153;82;22116;-39
2021/11/20 06:53:27;;;;;;;4.75;1.77;;;;;;;11.05;68.28;98160.88;1682981;84;21890;-39
2021/11/20 06:56:25;;;;;;;5.90;2.40;;;;;;;11.06;68.12;98174.64;1683581;83;21033;-40
2021/11/20 06:59:08;;;;;;;6.37;2.47;;;;;;;11.05;68.16;98170.38;1609505;87;21101;-39
2021/11/20 07:01:35;;;;;;;8.20;2.67;;;;;;;11.02;68.24;98165.75;1623865;87;21052;-39
2021/11/20 07:04:06;;;;;;;7.67;2.42;;;;;;;11.08;67.39;98172.33;1650500;84;21596;-40
2021/11/20 07:06:47;;;;;;;7.60;2.27;;;;;;;11.13;66.83;98163.21;1685269;83;21106;-40
2021/11/20 07:09:16;;;;;;;9.48;2.72;;;;;;;11.17;66.66;98176.76;1746570;82;20973;-40
2021/11/20 07:11:44;;;;;;;6.33;2.42;;;;;;;11.18;66.56;98172.27;1741974;81;20925;-40
2021/11/20 07:14:12;;;;;;;4.55;2.02;;;;;;;11.18;65.65;98175.59;1750503;82;21609;-40
2021/11/20 07:16:40;;;;;;;8.10;2.02;;;;;;;11.22;66.14;98169.57;1727316;82;21269;-40
2021/11/20 07:19:08;;;;;;;5.75;2.00;;;;;;;11.27;65.20;98175.95;1715005;82;21115;-40
2021/11/20 07:21:54;;;;;;;6.90;2.40;;;;;;;11.36;65.43;98181.73;1692690;84;20990;-40
2021/11/20 07:24:25;;;;;;;7.78;2.40;;;;;;;11.38;64.99;98168.53;1688552;84;20965;-40
2021/11/20 07:26:53;;;;;;;6.05;2.30;;;;;;;11.42;64.63;98175.33;1693487;84;20951;-40
2021/11/20 07:29:22;;;;;;;10.43;2.55;;;;;;;11.46;64.29;98172.78;1695323;84;21105;-40
2021/11/20 07:31:59;;;;;;;3.50;1.90;;;;;;;11.49;63.95;98180.13;1674421;84;21789;-39
2021/11/20 07:34:27;;;;;;;7.83;2.20;;;;;;;11.57;64.21;98159.18;1674964;84;21540;-39
2021/11/20 07:36:56;;;;;;;6.90;2.55;;;;;;;11.65;63.29;98173.67;1664271;84;21041;-39
2021/11/20 07:39:23;;;;;;;11.00;2.60;;;;;;;11.74;63.28;98171.91;1663904;85;20954;-39
2021/11/20 07:41:51;;;;;;;9.58;2.80;;;;;;;11.80;62.79;98176.34;1664439;85;21053;-39
2021/11/20 07:44:20;;;;;;;5.67;2.55;;;;;;;11.84;62.86;98178.45;1676499;83;21163;-39
2021/11/20 07:46:48;;;;;;;8.93;2.55;;;;;;;11.84;62.84;98182.53;1712236;83;21060;-39
2021/11/20 07:49:16;;;;;;;7.62;2.45;;;;;;;11.76;62.51;98171.69;1717125;81;21016;-39
2021/11/20 07:51:44;;;;;;;8.63;2.70;;;;;;;11.70;62.74;98212.63;1725522;81;21685;-39
2021/11/20 07:54:12;;;;;;;8.03;3.08;;;;;;;11.68;62.82;98204.09;1732938;82;21673;-39
2021/11/20 07:56:50;;;;;;;5.67;2.52;;;;;;;11.65;62.82;98206.83;1703156;84;21551;-39
2021/11/20 07:59:17;;;;;;;9.98;3.12;;;;;;;11.62;63.10;98215.16;1707214;84;21511;-39
2021/11/20 08:01:44;;;;;;;7.80;2.60;;;;;;;11.67;63.17;98209.33;1707783;84;21595;-39
2021/11/20 08:04:14;;;;;;;8.07;2.50;;;;;;;11.78;62.56;98213.97;1741279;81;21014;-39
2021/11/20 08:06:50;;;;;;;12.55;2.95;;;;;;;11.87;61.21;98216.45;1735448;82;21480;-39
2021/11/20 08:09:26;;;;;;;6.97;2.52;;;;;;;11.92;60.27;98212.55;1713017;81;22132;-38
2021/11/20 08:11:53;;;;;;;13.83;2.42;;;;;;;11.97;60.35;98220.28;1741984;81;21548;-39
2021/11/20 08:14:22;;;;;;;9.10;3.05;;;;;;;11.97;59.93;98216.98;1706527;82;21530;-39
2021/11/20 08:16:52;;;;;;;9.20;3.27;;;;;;;11.94;59.48;98216.43;1690235;83;21099;-39
2021/11/20 08:19:23;;;;;;;6.75;2.27;;;;;;;11.88;59.44;98219.36;1692322;82;21767;-40
2021/11/20 08:21:52;;;;;;;5.95;2.37;;;;;;;11.82;59.14;98218.80;1676616;84;21751;-40
2021/11/20 08:24:22;;;;;;;6.50;2.42;;;;;;;11.72;59.14;98221.17;1686365;83;21027;-40
2021/11/20 08:26:49;;;;;;;10.58;2.55;;;;;;;11.73;59.39;98234.16;1721330;82;21084;-40
2021/11/20 08:29:18;;;;;;;11.22;2.92;;;;;;;11.75;59.30;98248.13;1737231;81;21079;-40
2021/11/20 08:31:48;;;;;;;10.03;3.05;;;;;;;11.76;59.17;98236.86;1764595;81;21099;-40
2021/11/20 08:34:28;;;;;;;7.58;2.25;;;;;;;11.78;59.42;98243.84;1743935;81;21132;-40
2021/11/20 08:37:07;;;;;;;9.80;2.72;;;;;;;11.71;57.92;98242.66;1728548;82;20957;-40
2021/11/20 08:39:36;;;;;;;8.35;2.50;;;;;;;11.68;57.62;98260.33;1712880;83;21351;-40
2021/11/20 08:42:06;;;;;;;15.83;3.20;;;;;;;11.65;57.67;98257.05;1743967;81;21033;-40
2021/11/20 08:44:33;;;;;;;8.58;2.92;;;;;;;11.63;58.01;98252.02;1744990;81;21041;-40
2021/11/20 08:47:03;;;;;;;7.80;2.12;;;;;;;11.60;57.36;98250.67;1748623;82;21139;-40
2021/11/20 08:49:32;;;;;;;9.20;2.80;;;;;;;11.56;56.94;98237.12;1744273;80;21641;-39
2021/11/20 08:52:00;;;;;;;9.13;2.50;;;;;;;11.55;57.37;98243.70;1711321;83;20949;-39
2021/11/20 08:54:28;;;;;;;9.60;2.30;;;;;;;11.56;56.89;98237.70;1714144;83;21068;-39
2021/11/20 08:56:56;;;;;;;9.25;2.25;;;;;;;11.60;56.97;98242.53;1714892;83;21091;-39
2021/11/20 08:59:29;;;;;;;8.40;2.77;;;;;;;11.58;56.04;98248.34;1750678;81;21896;-39
2021/11/20 09:02:29;;;;;;;8.10;2.40;;;;;;;11.60;56.43;98251.45;1738210;82;21039;-40
2021/11/20 09:05:10;;;;;;;8.73;2.20;;;;;;;11.64;55.99;98249.49;1750219;81;21621;-40
2021/11/20 09:07:51;;;;;;;8.65;2.40;;;;;;;11.67;55.57;98249.27;1730894;82;21037;-40
2021/11/20 09:10:39;;;;;;;6.90;2.30;;;;;;;11.67;55.85;98245.20;1718919;83;21070;-40
2021/11/20 09:13:24;;;;;;;7.15;2.42;;;;;;;11.72;56.84;98241.53;1750906;81;21134;-40
2021/11/20 09:15:57;;;;;;;9.38;2.83;;;;;;;11.81;56.63;98237.06;1735770;81;21574;-40
2021/11/20 09:18:26;;;;;;;9.40;2.27;;;;;;;11.84;55.33;98251.20;1768511;81;20961;-40
2021/11/20 09:20:55;;;;;;;9.13;2.40;;;;;;;11.85;55.77;98251.97;1759843;81;21038;-40
2021/11/20 09:23:33;;;;;;;;;;;;;;;11.88;56.12;98257.38;1734673;81;21010;-40
2021/11/20 09:26:02;;;;;;;8.75;2.45;;;;;;;11.88;55.01;98246.52;1711437;82;21154;-41
2021/11/20 09:28:29;;;;;;;9.55;2.40;;;;;;;11.76;54.56;98251.05;1679918;84;21618;-41
2021/11/20 09:30:59;;;;;;;7.55;2.60;;;;;;;11.80;55.05;98236.86;1686281;84;21068;-41
2021/11/20 09:33:27;;;;;;;8.98;2.52;;;;;;;11.90;54.82;98246.91;1678629;85;20976;-41
2021/11/20 09:38:47;;;;;;;8.90;2.37;;;;;;;12.08;53.58;98235.95;1820080;78;23261;-40
2021/11/20 09:41:21;;;;;;;9.43;2.52;;;;;;;11.99;53.98;98255.98;1816454;79;21163;-39
2021/11/20 09:43:54;;;;;;;10.32;2.80;;;;;;;12.03;53.31;98237.14;1816426;78;21102;-40
2021/11/20 09:46:32;;;;;;;9.98;2.60;;;;;;;12.15;52.63;98233.95;1816305;78;20992;-40
2021/11/20 09:49:04;;;;;;;9.50;3.00;;;;;;;12.36;51.45;98230.93;1809045;79;20952;-40
2021/11/20 09:51:40;;;;;;;10.13;2.92;;;;;;;12.53;48.93;98234.91;1813602;78;20960;-40
2021/11/20 09:54:22;;;;;;;6.55;2.33;;;;;;;12.70;49.05;98243.31;1799638;78;20957;-39
2021/11/20 09:56:56;;;;;;;6.20;2.45;;;;;;;12.80;48.40;98241.88;1784077;78;21765;-40
2021/11/20 09:59:59;;;;;;;12.80;2.72;;;;;;;12.88;49.24;98239.86;1789336;79;21007;-40
2021/11/20 10:02:51;;;;;;;9.73;2.90;;;;;;;12.91;49.30;98225.47;1784063;80;20937;-40
2021/11/20 10:05:35;;;;;;;7.30;2.22;;;;;;;12.86;48.81;98238.92;1803973;79;21571;-40
2021/11/20 10:08:24;;;;;;;12.85;3.02;;;;;;;12.85;49.64;98236.59;1789210;79;21002;-40
2021/11/20 10:10:59;;;;;;;10.13;2.60;;;;;;;12.86;50.09;98235.42;1784313;80;21906;-40
2021/11/20 10:13:31;;;;;;;13.58;2.87;;;;;;;12.88;48.88;98252.09;1768273;80;21664;-40
2021/11/20 10:16:13;;;;;;;10.48;2.60;;;;;;;12.83;49.40;98266.90;1783985;79;20929;-40
2021/11/20 10:19:06;;;;;;;13.85;2.60;;;;;;;12.79;48.28;98262.66;1783490;80;20984;-40
2021/11/20 10:21:38;;;;;;;8.68;2.40;;;;;;;12.83;46.94;98248.48;1791505;79;20959;-40
2021/11/20 10:24:40;;;;;;;11.68;2.77;;;;;;;12.95;46.97;98267.02;1815643;79;21067;-39
2021/11/20 10:27:42;;;;;;;10.13;2.70;;;;;;;13.10;45.71;98269.80;1808065;78;21000;-39
2021/11/20 10:30:37;;;;;;;11.05;2.77;;;;;;;13.27;45.14;98258.58;1711996;83;20957;-39
2021/11/20 10:33:33;;;;;;;13.58;2.92;;;;;;;13.35;45.21;98264.94;1756254;80;20937;-39
2021/11/20 10:36:32;;;;;;;11.20;2.98;;;;;;;13.39;45.49;98271.70;1756529;80;21080;-39
2021/11/20 10:39:16;;;;;;;7.78;2.77;;;;;;;13.35;45.76;98294.11;1719736;82;21187;-39
2021/11/20 10:42:01;;;;;;;10.38;2.72;;;;;;;13.19;45.95;98285.11;1718136;82;21049;-39
2021/11/20 10:44:33;;;;;;;11.05;2.87;;;;;;;13.09;46.31;98281.86;1734974;80;21068;-39
2021/11/20 10:47:15;;;;;;;9.40;2.62;;;;;;;12.96;46.53;98276.73;1754639;80;21076;-40
2021/11/20 10:50:21;;;;;;;11.40;2.70;;;;;;;12.84;47.21;98294.88;1777213;80;21084;-39
2021/11/20 10:53:08;;;;;;;13.90;3.02;;;;;;;12.73;48.27;98298.28;1748355;80;21126;-40
2021/11/20 10:56:07;;;;;;;11.35;2.72;;;;;;;12.55;46.92;98286.92;1746317;82;21118;-39
2021/11/20 10:58:57;;;;;;;16.97;3.15;;;;;;;12.43;45.88;98296.91;1747915;80;21647;-39
2021/11/20 11:01:56;;;;;;;10.43;3.17;;;;;;;12.44;46.47;98298.43;1776915;80;20965;-39
2021/11/20 11:04:41;;;;;;;11.38;3.12;;;;;;;12.61;44.54;98300.28;1777269;80;21606;-39
2021/11/20 11:07:28;;;;;;;11.05;2.65;;;;;;;12.81;43.50;98286.95;1777157;80;21903;-39
2021/11/20 11:10:06;;;;;;;12.63;2.70;;;;;;;12.99;43.98;98312.64;1777295;80;20982;-39
2021/11/20 11:12:52;;;;;;;7.55;2.60;;;;;;;13.07;43.17;98321.70;1777332;80;20961;-39
2021/11/20 11:16:02;;;;;;;7.75;2.50;;;;;;;13.16;42.99;98318.58;1751432;80;20961;-39
2021/11/20 11:18:50;;;;;;;9.98;2.80;;;;;;;13.24;42.39;98326.86;1746519;82;21590;-39
2021/11/20 11:21:54;;;;;;;12.70;2.70;;;;;;;13.33;42.93;98339.41;1788607;79;21341;-40
2021/11/20 11:25:09;;;;;;;7.42;2.33;;;;;;;13.22;42.17;98310.14;1702633;83;21639;-39
2021/11/20 11:28:22;;;;;;;15.83;3.33;;;;;;;13.01;43.08;98339.66;1746067;80;21511;-39
2021/11/20 11:31:19;;;;;;;7.72;2.70;;;;;;;12.83;44.53;98343.67;1762297;80;21030;-39
2021/11/20 11:33:50;;;;;;;14.13;2.90;;;;;;;12.71;45.69;98353.64;1746537;82;21092;-39
2021/11/20 11:36:40;;;;;;;12.25;3.52;;;;;;;12.68;46.10;98340.27;1746141;82;21125;-39
2021/11/20 11:39:41;;;;;;;;;;;;;;;12.63;45.62;98356.38;1748622;82;21023;-39
2021/11/20 11:42:36;;;;;;;11.28;3.17;;;;;;;12.49;45.80;98342.88;1729445;82;20119;-39
2021/11/20 11:45:38;;;;;;;13.38;3.52;;;;;;;12.20;46.13;98346.89;1733074;82;21553;-39
2021/11/20 11:48:54;;;;;;;12.60;3.17;;;;;;;12.19;47.17;98337.98;1704009;84;21550;-39
2021/11/20 11:52:03;;;;;;;9.78;2.75;;;;;;;12.40;47.24;98333.02;1703922;84;20964;-39
2021/11/20 11:54:45;;;;;;;10.38;3.10;;;;;;;12.67;44.37;98331.91;1716472;82;21103;-39
2021/11/20 11:57:18;;;;;;;9.30;2.80;;;;;;;12.96;43.55;98332.50;1722880;82;21040;-39
2021/11/20 12:00:19;;;;;;;9.50;2.60;;;;;;;13.25;42.52;98324.33;1733243;82;21058;-39
2021/11/20 12:02:53;;;;;;;10.72;2.50;;;;;;;13.44;42.99;98327.85;1779586;80;21029;-39
2021/11/20 12:05:37;;;;;;;11.73;3.00;;;;;;;13.42;42.58;98329.42;1780818;80;21480;-39
2021/11/20 12:08:25;;;;;;;10.32;2.77;;;;;;;13.20;42.35;98345.17;1780831;80;21041;-39
2021/11/20 12:11:04;;;;;;;10.98;3.35;;;;;;;12.91;42.77;98344.58;1773047;80;21484;-39